sensor_id;sensor_type;location;lat;lon;timestamp;P1;durP1;ratioP1;P2;durP2;ratioP2
51438;SDS011;38816;51.142;-0.974;2023-03-17T00:01:53;5.65;;;2.60;;
51438;SDS011;38816;51.142;-0.974;2023-03-17T00:04:23;3.97;;;2.63;;
51438;SDS011;38816;51.142;-0.974;2023-03-17T00:06:50;7.53;;;3.10;;
51438;SDS011;38816;51.142;-0.974;2023-03-17T00:09:17;3.50;;;2.50;;
51438;SDS011;38816;51.142;-0.974;2023-03-17T00:11:44;6.60;;;2.78;;
51438;SDS011;38816;51.142;-0.974;2023-03-17T00:14:10;6.80;;;2.95;;
51438;SDS011;38816;51.142;-0.974;2023-03-17T00:16:40;4.72;;;3.00;;
51438;SDS011;38816;51.142;-0.974;2023-03-17T00:19:14;3.22;;;2.55;;
51438;SDS011;38816;51.142;-0.974;2023-03-17T00:21:41;4.85;;;2.80;;
51438;SDS011;38816;51.142;-0.974;2023-03-17T00:24:09;5.97;;;3.25;;
51438;SDS011;38816;51.142;-0.974;2023-03-17T00:26:35;10.05;;;3.10;;
51438;SDS011;38816;51.142;-0.974;2023-03-17T00:29:01;9.27;;;3.38;;
51438;SDS011;38816;51.142;-0.974;2023-03-17T00:31:27;6.43;;;3.38;;
51438;SDS011;38816;51.142;-0.974;2023-03-17T00:33:54;9.23;;;3.72;;
51438;SDS011;38816;51.142;-0.974;2023-03-17T00:36:21;7.68;;;3.88;;
51438;SDS011;38816;51.142;-0.974;2023-03-17T00:38:48;7.45;;;4.15;;
51438;SDS011;38816;51.142;-0.974;2023-03-17T00:41:14;13.20;;;4.95;;
51438;SDS011;38816;51.142;-0.974;2023-03-17T00:43:40;12.75;;;5.20;;
51438;SDS011;38816;51.142;-0.974;2023-03-17T00:46:17;13.07;;;4.63;;
51438;SDS011;38816;51.142;-0.974;2023-03-17T00:48:49;16.17;;;4.35;;
51438;SDS011;38816;51.142;-0.974;2023-03-17T00:51:14;8.63;;;4.97;;
51438;SDS011;38816;51.142;-0.974;2023-03-17T00:53:42;10.77;;;4.93;;
51438;SDS011;38816;51.142;-0.974;2023-03-17T00:56:12;10.50;;;4.88;;
51438;SDS011;38816;51.142;-0.974;2023-03-17T00:58:40;12.75;;;6.10;;
51438;SDS011;38816;51.142;-0.974;2023-03-17T01:01:06;14.63;;;6.07;;
51438;SDS011;38816;51.142;-0.974;2023-03-17T01:03:32;13.98;;;6.10;;
51438;SDS011;38816;51.142;-0.974;2023-03-17T01:05:58;14.02;;;6.40;;
51438;SDS011;38816;51.142;-0.974;2023-03-17T01:08:24;19.08;;;6.70;;
51438;SDS011;38816;51.142;-0.974;2023-03-17T01:10:50;11.57;;;6.85;;
51438;SDS011;38816;51.142;-0.974;2023-03-17T01:13:16;13.40;;;6.60;;
51438;SDS011;38816;51.142;-0.974;2023-03-17T01:15:43;13.90;;;6.82;;
51438;SDS011;38816;51.142;-0.974;2023-03-17T01:18:11;13.60;;;6.68;;
51438;SDS011;38816;51.142;-0.974;2023-03-17T01:20:38;14.95;;;6.57;;
51438;SDS011;38816;51.142;-0.974;2023-03-17T01:23:03;11.00;;;6.43;;
51438;SDS011;38816;51.142;-0.974;2023-03-17T01:25:30;13.70;;;6.78;;
51438;SDS011;38816;51.142;-0.974;2023-03-17T01:27:56;16.70;;;6.55;;
51438;SDS011;38816;51.142;-0.974;2023-03-17T01:30:33;13.40;;;7.10;;
51438;SDS011;38816;51.142;-0.974;2023-03-17T01:33:01;17.65;;;6.85;;
51438;SDS011;38816;51.142;-0.974;2023-03-17T01:35:27;17.08;;;7.18;;
51438;SDS011;38816;51.142;-0.974;2023-03-17T01:37:54;16.08;;;7.10;;
51438;SDS011;38816;51.142;-0.974;2023-03-17T01:40:22;12.40;;;7.20;;
51438;SDS011;38816;51.142;-0.974;2023-03-17T01:42:51;19.88;;;8.13;;
51438;SDS011;38816;51.142;-0.974;2023-03-17T01:53:56;16.55;;;7.70;;
51438;SDS011;38816;51.142;-0.974;2023-03-17T01:56:24;14.10;;;7.45;;
51438;SDS011;38816;51.142;-0.974;2023-03-17T01:58:50;15.50;;;7.55;;
51438;SDS011;38816;51.142;-0.974;2023-03-17T02:01:22;13.13;;;6.72;;
51438;SDS011;38816;51.142;-0.974;2023-03-17T02:03:53;13.27;;;5.72;;
51438;SDS011;38816;51.142;-0.974;2023-03-17T02:06:19;15.57;;;6.05;;
51438;SDS011;38816;51.142;-0.974;2023-03-17T02:08:44;9.80;;;5.15;;
51438;SDS011;38816;51.142;-0.974;2023-03-17T02:11:10;12.38;;;4.78;;
51438;SDS011;38816;51.142;-0.974;2023-03-17T02:13:37;12.45;;;4.95;;
51438;SDS011;38816;51.142;-0.974;2023-03-17T02:16:02;9.73;;;4.28;;
51438;SDS011;38816;51.142;-0.974;2023-03-17T02:18:29;8.48;;;4.00;;
51438;SDS011;38816;51.142;-0.974;2023-03-17T02:23:21;7.93;;;3.38;;
51438;SDS011;38816;51.142;-0.974;2023-03-17T02:25:47;5.97;;;3.00;;
51438;SDS011;38816;51.142;-0.974;2023-03-17T02:28:15;5.90;;;3.00;;
51438;SDS011;38816;51.142;-0.974;2023-03-17T02:30:45;7.50;;;2.97;;
51438;SDS011;38816;51.142;-0.974;2023-03-17T02:33:11;6.18;;;2.40;;
51438;SDS011;38816;51.142;-0.974;2023-03-17T02:35:36;7.38;;;2.78;;
51438;SDS011;38816;51.142;-0.974;2023-03-17T02:38:02;5.30;;;2.22;;
51438;SDS011;38816;51.142;-0.974;2023-03-17T02:40:28;3.90;;;1.88;;
51438;SDS011;38816;51.142;-0.974;2023-03-17T02:42:53;3.38;;;1.50;;
51438;SDS011;38816;51.142;-0.974;2023-03-17T02:45:19;4.10;;;1.25;;
51438;SDS011;38816;51.142;-0.974;2023-03-17T02:47:45;2.90;;;0.95;;
51438;SDS011;38816;51.142;-0.974;2023-03-17T02:50:16;2.88;;;1.20;;
51438;SDS011;38816;51.142;-0.974;2023-03-17T02:52:43;1.88;;;1.05;;
51438;SDS011;38816;51.142;-0.974;2023-03-17T02:55:08;2.88;;;1.10;;
51438;SDS011;38816;51.142;-0.974;2023-03-17T02:57:34;2.58;;;1.10;;
51438;SDS011;38816;51.142;-0.974;2023-03-17T03:00:00;1.45;;;1.08;;
51438;SDS011;38816;51.142;-0.974;2023-03-17T03:02:25;1.52;;;1.00;;
51438;SDS011;38816;51.142;-0.974;2023-03-17T03:04:50;2.70;;;1.10;;
51438;SDS011;38816;51.142;-0.974;2023-03-17T03:07:17;5.15;;;1.38;;
51438;SDS011;38816;51.142;-0.974;2023-03-17T03:09:42;3.25;;;1.30;;
51438;SDS011;38816;51.142;-0.974;2023-03-17T03:12:08;2.42;;;1.30;;
51438;SDS011;38816;51.142;-0.974;2023-03-17T03:14:35;4.55;;;1.33;;
51438;SDS011;38816;51.142;-0.974;2023-03-17T03:17:01;6.38;;;1.40;;
51438;SDS011;38816;51.142;-0.974;2023-03-17T03:19:28;4.57;;;1.45;;
51438;SDS011;38816;51.142;-0.974;2023-03-17T03:21:53;3.25;;;1.48;;
51438;SDS011;38816;51.142;-0.974;2023-03-17T03:24:19;5.30;;;1.42;;
51438;SDS011;38816;51.142;-0.974;2023-03-17T03:26:44;5.85;;;1.50;;
51438;SDS011;38816;51.142;-0.974;2023-03-17T03:29:10;2.95;;;1.45;;
51438;SDS011;38816;51.142;-0.974;2023-03-17T03:31:35;5.88;;;1.80;;
51438;SDS011;38816;51.142;-0.974;2023-03-17T03:34:01;2.95;;;1.38;;
51438;SDS011;38816;51.142;-0.974;2023-03-17T03:36:26;3.03;;;1.27;;
51438;SDS011;38816;51.142;-0.974;2023-03-17T03:38:51;5.45;;;1.50;;
51438;SDS011;38816;51.142;-0.974;2023-03-17T03:41:17;4.25;;;1.67;;
51438;SDS011;38816;51.142;-0.974;2023-03-17T03:43:43;4.18;;;2.10;;
51438;SDS011;38816;51.142;-0.974;2023-03-17T03:46:08;6.07;;;2.00;;
51438;SDS011;38816;51.142;-0.974;2023-03-17T03:48:33;6.97;;;2.35;;
51438;SDS011;38816;51.142;-0.974;2023-03-17T03:50:59;10.27;;;2.63;;
51438;SDS011;38816;51.142;-0.974;2023-03-17T03:53:26;10.45;;;3.25;;
51438;SDS011;38816;51.142;-0.974;2023-03-17T03:55:52;11.57;;;3.10;;
51438;SDS011;38816;51.142;-0.974;2023-03-17T03:58:18;8.43;;;2.80;;
51438;SDS011;38816;51.142;-0.974;2023-03-17T04:00:44;10.48;;;3.63;;
51438;SDS011;38816;51.142;-0.974;2023-03-17T04:03:09;14.63;;;3.50;;
51438;SDS011;38816;51.142;-0.974;2023-03-17T04:05:35;11.60;;;3.58;;
51438;SDS011;38816;51.142;-0.974;2023-03-17T04:08:00;7.50;;;3.08;;
51438;SDS011;38816;51.142;-0.974;2023-03-17T04:10:26;13.15;;;3.72;;
51438;SDS011;38816;51.142;-0.974;2023-03-17T04:12:51;15.70;;;3.85;;
51438;SDS011;38816;51.142;-0.974;2023-03-17T04:15:17;9.60;;;3.90;;
51438;SDS011;38816;51.142;-0.974;2023-03-17T04:17:43;11.05;;;3.88;;
51438;SDS011;38816;51.142;-0.974;2023-03-17T04:20:09;9.80;;;4.53;;
51438;SDS011;38816;51.142;-0.974;2023-03-17T04:22:37;11.38;;;4.20;;
51438;SDS011;38816;51.142;-0.974;2023-03-17T04:25:02;11.23;;;4.32;;
51438;SDS011;38816;51.142;-0.974;2023-03-17T04:27:28;17.58;;;5.20;;
51438;SDS011;38816;51.142;-0.974;2023-03-17T04:29:53;15.73;;;6.00;;
51438;SDS011;38816;51.142;-0.974;2023-03-17T04:32:18;20.35;;;6.95;;
51438;SDS011;38816;51.142;-0.974;2023-03-17T04:34:44;17.98;;;5.82;;
51438;SDS011;38816;51.142;-0.974;2023-03-17T04:37:10;17.33;;;6.20;;
51438;SDS011;38816;51.142;-0.974;2023-03-17T04:39:35;16.65;;;5.47;;
51438;SDS011;38816;51.142;-0.974;2023-03-17T04:42:01;20.08;;;6.13;;
51438;SDS011;38816;51.142;-0.974;2023-03-17T04:44:27;14.70;;;6.30;;
51438;SDS011;38816;51.142;-0.974;2023-03-17T04:46:52;20.63;;;6.85;;
51438;SDS011;38816;51.142;-0.974;2023-03-17T04:49:18;23.23;;;7.88;;
51438;SDS011;38816;51.142;-0.974;2023-03-17T04:51:43;17.35;;;7.72;;
51438;SDS011;38816;51.142;-0.974;2023-03-17T04:54:08;17.65;;;7.85;;
51438;SDS011;38816;51.142;-0.974;2023-03-17T04:56:34;23.15;;;9.38;;
51438;SDS011;38816;51.142;-0.974;2023-03-17T04:59:00;24.25;;;8.60;;
51438;SDS011;38816;51.142;-0.974;2023-03-17T05:03:57;19.10;;;8.70;;
51438;SDS011;38816;51.142;-0.974;2023-03-17T05:06:22;19.17;;;8.65;;
51438;SDS011;38816;51.142;-0.974;2023-03-17T05:08:47;19.50;;;8.90;;
51438;SDS011;38816;51.142;-0.974;2023-03-17T05:11:13;15.73;;;9.05;;
51438;SDS011;38816;51.142;-0.974;2023-03-17T05:13:39;23.55;;;9.73;;
51438;SDS011;38816;51.142;-0.974;2023-03-17T05:16:05;22.33;;;9.77;;
51438;SDS011;38816;51.142;-0.974;2023-03-17T05:18:32;19.45;;;10.05;;
51438;SDS011;38816;51.142;-0.974;2023-03-17T05:20:58;28.33;;;10.55;;
51438;SDS011;38816;51.142;-0.974;2023-03-17T05:23:24;22.73;;;9.90;;
51438;SDS011;38816;51.142;-0.974;2023-03-17T05:25:50;20.15;;;10.18;;
51438;SDS011;38816;51.142;-0.974;2023-03-17T05:28:16;23.92;;;10.13;;
51438;SDS011;38816;51.142;-0.974;2023-03-17T05:30:43;23.13;;;9.90;;
51438;SDS011;38816;51.142;-0.974;2023-03-17T05:33:09;21.52;;;9.32;;
51438;SDS011;38816;51.142;-0.974;2023-03-17T05:35:35;26.90;;;9.65;;
51438;SDS011;38816;51.142;-0.974;2023-03-17T05:38:01;25.35;;;9.18;;
51438;SDS011;38816;51.142;-0.974;2023-03-17T05:40:26;22.08;;;8.00;;
51438;SDS011;38816;51.142;-0.974;2023-03-17T05:42:52;25.70;;;8.32;;
51438;SDS011;38816;51.142;-0.974;2023-03-17T05:45:17;23.33;;;7.47;;
51438;SDS011;38816;51.142;-0.974;2023-03-17T05:47:43;21.73;;;8.02;;
51438;SDS011;38816;51.142;-0.974;2023-03-17T05:50:10;23.85;;;8.35;;
51438;SDS011;38816;51.142;-0.974;2023-03-17T05:52:36;18.17;;;8.52;;
51438;SDS011;38816;51.142;-0.974;2023-03-17T05:55:02;27.67;;;9.95;;
51438;SDS011;38816;51.142;-0.974;2023-03-17T05:57:29;22.85;;;9.90;;
51438;SDS011;38816;51.142;-0.974;2023-03-17T05:59:54;28.30;;;11.05;;
51438;SDS011;38816;51.142;-0.974;2023-03-17T06:02:19;24.83;;;11.07;;
51438;SDS011;38816;51.142;-0.974;2023-03-17T06:04:45;31.45;;;11.40;;
51438;SDS011;38816;51.142;-0.974;2023-03-17T06:07:10;24.45;;;11.10;;
51438;SDS011;38816;51.142;-0.974;2023-03-17T06:09:37;24.65;;;11.52;;
51438;SDS011;38816;51.142;-0.974;2023-03-17T06:12:02;21.70;;;10.60;;
51438;SDS011;38816;51.142;-0.974;2023-03-17T06:14:28;32.20;;;12.38;;
51438;SDS011;38816;51.142;-0.974;2023-03-17T06:16:54;35.28;;;13.18;;
51438;SDS011;38816;51.142;-0.974;2023-03-17T06:19:19;33.40;;;14.15;;
51438;SDS011;38816;51.142;-0.974;2023-03-17T06:21:45;40.67;;;14.25;;
51438;SDS011;38816;51.142;-0.974;2023-03-17T06:24:10;36.33;;;13.77;;
51438;SDS011;38816;51.142;-0.974;2023-03-17T06:26:36;38.55;;;15.27;;
51438;SDS011;38816;51.142;-0.974;2023-03-17T06:29:02;41.47;;;14.57;;
51438;SDS011;38816;51.142;-0.974;2023-03-17T06:31:28;39.08;;;14.20;;
51438;SDS011;38816;51.142;-0.974;2023-03-17T06:33:54;42.03;;;13.73;;
51438;SDS011;38816;51.142;-0.974;2023-03-17T06:36:20;46.55;;;15.05;;
51438;SDS011;38816;51.142;-0.974;2023-03-17T06:38:45;54.45;;;15.35;;
51438;SDS011;38816;51.142;-0.974;2023-03-17T06:41:11;48.33;;;15.45;;
51438;SDS011;38816;51.142;-0.974;2023-03-17T06:43:36;59.65;;;16.45;;
51438;SDS011;38816;51.142;-0.974;2023-03-17T06:46:02;47.75;;;14.73;;
51438;SDS011;38816;51.142;-0.974;2023-03-17T06:48:28;48.65;;;15.30;;
51438;SDS011;38816;51.142;-0.974;2023-03-17T06:50:53;49.15;;;14.63;;
51438;SDS011;38816;51.142;-0.974;2023-03-17T06:53:19;43.05;;;13.57;;
51438;SDS011;38816;51.142;-0.974;2023-03-17T06:55:45;44.10;;;13.43;;
51438;SDS011;38816;51.142;-0.974;2023-03-17T06:58:10;41.03;;;12.82;;
51438;SDS011;38816;51.142;-0.974;2023-03-17T07:00:37;42.83;;;12.52;;
51438;SDS011;38816;51.142;-0.974;2023-03-17T07:03:03;43.75;;;11.43;;
51438;SDS011;38816;51.142;-0.974;2023-03-17T07:05:29;42.80;;;11.23;;
51438;SDS011;38816;51.142;-0.974;2023-03-17T07:07:55;37.67;;;10.30;;
51438;SDS011;38816;51.142;-0.974;2023-03-17T07:10:21;37.17;;;10.52;;
51438;SDS011;38816;51.142;-0.974;2023-03-17T07:12:47;32.85;;;10.07;;
51438;SDS011;38816;51.142;-0.974;2023-03-17T07:15:13;33.75;;;9.48;;
51438;SDS011;38816;51.142;-0.974;2023-03-17T07:17:38;41.92;;;9.68;;
51438;SDS011;38816;51.142;-0.974;2023-03-17T07:20:04;49.65;;;10.45;;
51438;SDS011;38816;51.142;-0.974;2023-03-17T07:22:30;38.00;;;10.75;;
51438;SDS011;38816;51.142;-0.974;2023-03-17T07:24:56;47.72;;;11.10;;
51438;SDS011;38816;51.142;-0.974;2023-03-17T07:27:22;37.20;;;10.10;;
51438;SDS011;38816;51.142;-0.974;2023-03-17T07:29:58;36.38;;;9.95;;
51438;SDS011;38816;51.142;-0.974;2023-03-17T07:32:28;53.17;;;11.40;;
51438;SDS011;38816;51.142;-0.974;2023-03-17T07:34:53;27.52;;;10.23;;
51438;SDS011;38816;51.142;-0.974;2023-03-17T07:37:18;41.35;;;10.80;;
51438;SDS011;38816;51.142;-0.974;2023-03-17T07:39:45;44.97;;;11.60;;
51438;SDS011;38816;51.142;-0.974;2023-03-17T07:42:12;50.35;;;12.18;;
51438;SDS011;38816;51.142;-0.974;2023-03-17T07:44:39;42.17;;;11.32;;
51438;SDS011;38816;51.142;-0.974;2023-03-17T07:47:05;33.28;;;12.35;;
51438;SDS011;38816;51.142;-0.974;2023-03-17T07:49:31;28.48;;;10.93;;
51438;SDS011;38816;51.142;-0.974;2023-03-17T07:51:57;26.88;;;10.52;;
51438;SDS011;38816;51.142;-0.974;2023-03-17T07:54:22;17.98;;;9.20;;
51438;SDS011;38816;51.142;-0.974;2023-03-17T07:56:49;18.02;;;7.70;;
51438;SDS011;38816;51.142;-0.974;2023-03-17T07:59:15;12.85;;;6.88;;
51438;SDS011;38816;51.142;-0.974;2023-03-17T08:01:41;12.27;;;6.65;;
51438;SDS011;38816;51.142;-0.974;2023-03-17T08:04:06;11.85;;;6.22;;
51438;SDS011;38816;51.142;-0.974;2023-03-17T08:06:32;13.88;;;6.10;;
51438;SDS011;38816;51.142;-0.974;2023-03-17T08:08:58;13.60;;;5.85;;
51438;SDS011;38816;51.142;-0.974;2023-03-17T08:11:23;11.25;;;5.63;;
51438;SDS011;38816;51.142;-0.974;2023-03-17T08:13:49;15.75;;;5.32;;
51438;SDS011;38816;51.142;-0.974;2023-03-17T08:16:15;12.75;;;5.80;;
51438;SDS011;38816;51.142;-0.974;2023-03-17T08:18:41;12.88;;;5.57;;
51438;SDS011;38816;51.142;-0.974;2023-03-17T08:21:06;15.18;;;5.03;;
51438;SDS011;38816;51.142;-0.974;2023-03-17T08:23:32;12.50;;;5.30;;
51438;SDS011;38816;51.142;-0.974;2023-03-17T08:25:59;13.18;;;5.07;;
51438;SDS011;38816;51.142;-0.974;2023-03-17T08:28:25;11.57;;;4.72;;
51438;SDS011;38816;51.142;-0.974;2023-03-17T08:30:51;5.80;;;3.47;;
51438;SDS011;38816;51.142;-0.974;2023-03-17T08:33:17;7.55;;;3.25;;
51438;SDS011;38816;51.142;-0.974;2023-03-17T08:35:42;7.57;;;2.95;;
51438;SDS011;38816;51.142;-0.974;2023-03-17T08:38:08;9.52;;;3.15;;
51438;SDS011;38816;51.142;-0.974;2023-03-17T08:40:34;4.93;;;2.60;;
51438;SDS011;38816;51.142;-0.974;2023-03-17T08:43:00;11.23;;;3.05;;
51438;SDS011;38816;51.142;-0.974;2023-03-17T08:45:26;7.63;;;2.80;;
51438;SDS011;38816;51.142;-0.974;2023-03-17T08:47:52;9.00;;;3.10;;
51438;SDS011;38816;51.142;-0.974;2023-03-17T08:50:18;5.63;;;2.67;;
51438;SDS011;38816;51.142;-0.974;2023-03-17T08:52:46;6.07;;;2.85;;
51438;SDS011;38816;51.142;-0.974;2023-03-17T08:55:13;6.75;;;3.05;;
51438;SDS011;38816;51.142;-0.974;2023-03-17T08:57:40;6.43;;;2.80;;
51438;SDS011;38816;51.142;-0.974;2023-03-17T09:00:07;7.70;;;2.83;;
51438;SDS011;38816;51.142;-0.974;2023-03-17T09:02:35;7.43;;;2.50;;
51438;SDS011;38816;51.142;-0.974;2023-03-17T09:05:01;6.15;;;2.63;;
51438;SDS011;38816;51.142;-0.974;2023-03-17T09:07:28;6.50;;;2.70;;
51438;SDS011;38816;51.142;-0.974;2023-03-17T09:09:53;7.07;;;2.70;;
51438;SDS011;38816;51.142;-0.974;2023-03-17T09:12:18;4.90;;;2.97;;
51438;SDS011;38816;51.142;-0.974;2023-03-17T09:14:44;4.05;;;2.50;;
51438;SDS011;38816;51.142;-0.974;2023-03-17T09:17:10;6.15;;;3.17;;
51438;SDS011;38816;51.142;-0.974;2023-03-17T09:19:37;8.02;;;3.00;;
51438;SDS011;38816;51.142;-0.974;2023-03-17T09:22:04;8.20;;;3.55;;
51438;SDS011;38816;51.142;-0.974;2023-03-17T09:24:29;8.85;;;4.72;;
51438;SDS011;38816;51.142;-0.974;2023-03-17T09:26:55;10.30;;;4.65;;
51438;SDS011;38816;51.142;-0.974;2023-03-17T09:29:23;7.70;;;5.25;;
51438;SDS011;38816;51.142;-0.974;2023-03-17T09:31:49;14.07;;;6.18;;
51438;SDS011;38816;51.142;-0.974;2023-03-17T09:34:14;12.23;;;6.18;;
51438;SDS011;38816;51.142;-0.974;2023-03-17T09:36:40;10.90;;;6.82;;
51438;SDS011;38816;51.142;-0.974;2023-03-17T09:39:06;11.38;;;7.03;;
51438;SDS011;38816;51.142;-0.974;2023-03-17T09:50:12;9.52;;;6.15;;
51438;SDS011;38816;51.142;-0.974;2023-03-17T09:52:42;13.70;;;6.07;;
51438;SDS011;38816;51.142;-0.974;2023-03-17T09:55:11;7.80;;;5.57;;
51438;SDS011;38816;51.142;-0.974;2023-03-17T09:57:46;8.77;;;5.18;;
51438;SDS011;38816;51.142;-0.974;2023-03-17T10:02:43;6.00;;;4.45;;
51438;SDS011;38816;51.142;-0.974;2023-03-17T10:07:49;18.05;;;7.35;;
51438;SDS011;38816;51.142;-0.974;2023-03-17T10:18:59;7.68;;;2.83;;
51438;SDS011;38816;51.142;-0.974;2023-03-17T10:21:31;7.00;;;3.05;;
51438;SDS011;38816;51.142;-0.974;2023-03-17T10:23:58;11.68;;;3.38;;
51438;SDS011;38816;51.142;-0.974;2023-03-17T10:26:33;4.22;;;2.75;;
51438;SDS011;38816;51.142;-0.974;2023-03-17T10:29:17;3.75;;;2.60;;
51438;SDS011;38816;51.142;-0.974;2023-03-17T10:31:48;7.45;;;2.90;;
51438;SDS011;38816;51.142;-0.974;2023-03-17T10:36:57;6.70;;;2.55;;
51438;SDS011;38816;51.142;-0.974;2023-03-17T10:39:41;5.32;;;2.50;;
51438;SDS011;38816;51.142;-0.974;2023-03-17T10:42:11;7.13;;;2.88;;
51438;SDS011;38816;51.142;-0.974;2023-03-17T10:47:45;3.22;;;2.40;;
51438;SDS011;38816;51.142;-0.974;2023-03-17T10:50:17;7.00;;;2.38;;
51438;SDS011;38816;51.142;-0.974;2023-03-17T10:52:43;5.65;;;2.45;;
51438;SDS011;38816;51.142;-0.974;2023-03-17T10:55:13;3.33;;;1.80;;
51438;SDS011;38816;51.142;-0.974;2023-03-17T10:57:47;5.05;;;1.80;;
51438;SDS011;38816;51.142;-0.974;2023-03-17T11:00:18;6.68;;;1.83;;
51438;SDS011;38816;51.142;-0.974;2023-03-17T11:02:47;5.43;;;2.00;;
51438;SDS011;38816;51.142;-0.974;2023-03-17T11:05:21;8.18;;;1.83;;
51438;SDS011;38816;51.142;-0.974;2023-03-17T11:07:48;2.28;;;1.60;;
51438;SDS011;38816;51.142;-0.974;2023-03-17T11:10:17;3.95;;;1.70;;
51438;SDS011;38816;51.142;-0.974;2023-03-17T11:12:59;4.68;;;1.90;;
51438;SDS011;38816;51.142;-0.974;2023-03-17T11:15:32;4.10;;;2.10;;
51438;SDS011;38816;51.142;-0.974;2023-03-17T11:18:00;4.15;;;2.13;;
51438;SDS011;38816;51.142;-0.974;2023-03-17T11:25:46;4.05;;;2.17;;
51438;SDS011;38816;51.142;-0.974;2023-03-17T11:28:20;4.88;;;2.40;;
51438;SDS011;38816;51.142;-0.974;2023-03-17T11:39:16;5.82;;;3.75;;
51438;SDS011;38816;51.142;-0.974;2023-03-17T11:42:02;6.53;;;3.85;;
51438;SDS011;38816;51.142;-0.974;2023-03-17T11:47:26;9.48;;;6.38;;
51438;SDS011;38816;51.142;-0.974;2023-03-17T11:55:44;15.25;;;8.05;;
51438;SDS011;38816;51.142;-0.974;2023-03-17T11:58:12;16.15;;;8.02;;
51438;SDS011;38816;51.142;-0.974;2023-03-17T12:00:54;12.40;;;5.55;;
51438;SDS011;38816;51.142;-0.974;2023-03-17T12:06:44;11.40;;;4.70;;
51438;SDS011;38816;51.142;-0.974;2023-03-17T12:09:31;8.63;;;4.70;;
51438;SDS011;38816;51.142;-0.974;2023-03-17T12:12:02;10.48;;;3.95;;
51438;SDS011;38816;51.142;-0.974;2023-03-17T12:14:34;8.80;;;3.30;;
51438;SDS011;38816;51.142;-0.974;2023-03-17T12:17:14;7.00;;;2.90;;
51438;SDS011;38816;51.142;-0.974;2023-03-17T12:22:41;7.20;;;3.10;;
51438;SDS011;38816;51.142;-0.974;2023-03-17T12:25:20;6.97;;;3.15;;
51438;SDS011;38816;51.142;-0.974;2023-03-17T12:30:27;9.82;;;2.42;;
51438;SDS011;38816;51.142;-0.974;2023-03-17T12:33:17;7.88;;;2.10;;
51438;SDS011;38816;51.142;-0.974;2023-03-17T12:35:44;5.85;;;1.80;;
51438;SDS011;38816;51.142;-0.974;2023-03-17T12:38:11;6.43;;;2.92;;
51438;SDS011;38816;51.142;-0.974;2023-03-17T12:43:37;4.53;;;1.80;;
51438;SDS011;38816;51.142;-0.974;2023-03-17T12:46:26;6.53;;;1.92;;
51438;SDS011;38816;51.142;-0.974;2023-03-17T12:54:29;4.30;;;1.63;;
51438;SDS011;38816;51.142;-0.974;2023-03-17T12:57:02;7.72;;;2.30;;
51438;SDS011;38816;51.142;-0.974;2023-03-17T12:59:34;9.77;;;3.00;;
51438;SDS011;38816;51.142;-0.974;2023-03-17T13:02:11;5.85;;;1.83;;
51438;SDS011;38816;51.142;-0.974;2023-03-17T13:04:51;4.97;;;1.80;;
51438;SDS011;38816;51.142;-0.974;2023-03-17T13:07:43;5.88;;;1.67;;
51438;SDS011;38816;51.142;-0.974;2023-03-17T13:13:04;9.23;;;1.80;;
51438;SDS011;38816;51.142;-0.974;2023-03-17T13:20:39;9.10;;;2.13;;
51438;SDS011;38816;51.142;-0.974;2023-03-17T13:26:49;9.45;;;2.28;;
51438;SDS011;38816;51.142;-0.974;2023-03-17T13:29:58;7.65;;;2.08;;
51438;SDS011;38816;51.142;-0.974;2023-03-17T13:32:28;10.20;;;2.35;;
51438;SDS011;38816;51.142;-0.974;2023-03-17T13:50:50;10.35;;;1.88;;
51438;SDS011;38816;51.142;-0.974;2023-03-17T13:53:21;6.80;;;1.30;;
51438;SDS011;38816;51.142;-0.974;2023-03-17T13:56:08;8.98;;;1.90;;
51438;SDS011;38816;51.142;-0.974;2023-03-17T14:04:16;7.55;;;1.50;;
51438;SDS011;38816;51.142;-0.974;2023-03-17T14:06:44;8.02;;;1.50;;
51438;SDS011;38816;51.142;-0.974;2023-03-17T14:09:20;8.93;;;1.75;;
51438;SDS011;38816;51.142;-0.974;2023-03-17T14:11:55;10.68;;;1.70;;
51438;SDS011;38816;51.142;-0.974;2023-03-17T14:16:57;9.88;;;1.88;;
51438;SDS011;38816;51.142;-0.974;2023-03-17T14:19:27;6.53;;;1.48;;
51438;SDS011;38816;51.142;-0.974;2023-03-17T14:21:54;9.70;;;2.15;;
51438;SDS011;38816;51.142;-0.974;2023-03-17T14:24:32;9.80;;;1.75;;
51438;SDS011;38816;51.142;-0.974;2023-03-17T14:27:02;7.05;;;1.60;;
51438;SDS011;38816;51.142;-0.974;2023-03-17T14:29:31;6.15;;;1.80;;
51438;SDS011;38816;51.142;-0.974;2023-03-17T14:32:02;9.75;;;1.50;;
51438;SDS011;38816;51.142;-0.974;2023-03-17T14:34:29;6.95;;;1.63;;
51438;SDS011;38816;51.142;-0.974;2023-03-17T14:37:00;9.90;;;1.60;;
51438;SDS011;38816;51.142;-0.974;2023-03-17T14:39:28;7.07;;;1.92;;
51438;SDS011;38816;51.142;-0.974;2023-03-17T14:42:00;8.93;;;1.60;;
51438;SDS011;38816;51.142;-0.974;2023-03-17T14:44:39;13.15;;;2.22;;
51438;SDS011;38816;51.142;-0.974;2023-03-17T14:47:12;12.18;;;2.70;;
51438;SDS011;38816;51.142;-0.974;2023-03-17T14:49:46;9.63;;;1.90;;
51438;SDS011;38816;51.142;-0.974;2023-03-17T14:52:20;6.18;;;1.80;;
51438;SDS011;38816;51.142;-0.974;2023-03-17T14:54:51;9.27;;;1.88;;
51438;SDS011;38816;51.142;-0.974;2023-03-17T14:57:20;9.38;;;2.03;;
51438;SDS011;38816;51.142;-0.974;2023-03-17T14:59:57;10.48;;;2.38;;
51438;SDS011;38816;51.142;-0.974;2023-03-17T15:02:30;16.95;;;2.70;;
51438;SDS011;38816;51.142;-0.974;2023-03-17T15:07:54;8.07;;;1.50;;
51438;SDS011;38816;51.142;-0.974;2023-03-17T15:10:24;12.13;;;1.75;;
51438;SDS011;38816;51.142;-0.974;2023-03-17T15:13:01;10.38;;;1.50;;
51438;SDS011;38816;51.142;-0.974;2023-03-17T15:15:30;8.27;;;2.08;;
51438;SDS011;38816;51.142;-0.974;2023-03-17T15:17:59;10.23;;;1.85;;
51438;SDS011;38816;51.142;-0.974;2023-03-17T15:20:28;9.88;;;1.60;;
51438;SDS011;38816;51.142;-0.974;2023-03-17T15:22:58;11.88;;;2.13;;
51438;SDS011;38816;51.142;-0.974;2023-03-17T15:25:37;8.35;;;2.70;;
51438;SDS011;38816;51.142;-0.974;2023-03-17T15:28:12;9.27;;;1.83;;
51438;SDS011;38816;51.142;-0.974;2023-03-17T15:30:40;18.92;;;1.80;;
51438;SDS011;38816;51.142;-0.974;2023-03-17T15:35:42;9.10;;;2.90;;
51438;SDS011;38816;51.142;-0.974;2023-03-17T15:38:10;12.27;;;2.13;;
51438;SDS011;38816;51.142;-0.974;2023-03-17T15:40:36;13.80;;;1.90;;
51438;SDS011;38816;51.142;-0.974;2023-03-17T15:43:01;9.82;;;1.88;;
51438;SDS011;38816;51.142;-0.974;2023-03-17T15:45:27;15.25;;;2.10;;
51438;SDS011;38816;51.142;-0.974;2023-03-17T15:47:52;8.55;;;1.55;;
51438;SDS011;38816;51.142;-0.974;2023-03-17T15:50:21;11.25;;;2.03;;
51438;SDS011;38816;51.142;-0.974;2023-03-17T15:52:50;7.80;;;1.95;;
51438;SDS011;38816;51.142;-0.974;2023-03-17T15:55:25;6.05;;;1.30;;
51438;SDS011;38816;51.142;-0.974;2023-03-17T15:57:55;10.00;;;1.88;;
51438;SDS011;38816;51.142;-0.974;2023-03-17T16:00:23;18.08;;;2.03;;
51438;SDS011;38816;51.142;-0.974;2023-03-17T16:02:54;9.88;;;1.80;;
51438;SDS011;38816;51.142;-0.974;2023-03-17T16:05:23;7.93;;;1.75;;
51438;SDS011;38816;51.142;-0.974;2023-03-17T16:07:50;11.88;;;2.17;;
51438;SDS011;38816;51.142;-0.974;2023-03-17T16:10:17;11.00;;;1.88;;
51438;SDS011;38816;51.142;-0.974;2023-03-17T16:12:48;7.22;;;1.73;;
51438;SDS011;38816;51.142;-0.974;2023-03-17T16:15:14;9.65;;;1.85;;
51438;SDS011;38816;51.142;-0.974;2023-03-17T16:17:45;12.73;;;2.10;;
51438;SDS011;38816;51.142;-0.974;2023-03-17T16:20:18;10.15;;;2.10;;
51438;SDS011;38816;51.142;-0.974;2023-03-17T16:22:46;10.18;;;2.05;;
51438;SDS011;38816;51.142;-0.974;2023-03-17T16:27:52;11.13;;;1.70;;
51438;SDS011;38816;51.142;-0.974;2023-03-17T16:32:58;13.07;;;2.30;;
51438;SDS011;38816;51.142;-0.974;2023-03-17T16:35:27;13.57;;;2.45;;
51438;SDS011;38816;51.142;-0.974;2023-03-17T16:37:53;7.47;;;1.85;;
51438;SDS011;38816;51.142;-0.974;2023-03-17T16:40:32;11.25;;;1.95;;